This is the latest recevied weather packets stored in our database for station/object KY4LEX. If no packets are shown the sender has not sent any weather packets the latest 10 day(s).
| Time | Temp. | Humidity | Pressure | Rain* | Wind** | Luminosity | Snow |
|---|---|---|---|---|---|---|---|
| 1777485012 | 17.22° C | 91% | 1015.2 hPa | 0 mm | - | 243 W/m² | - |
| 1777484710 | 17.78° C | 90% | 1015.3 hPa | 0 mm | - | 149 W/m² | - |
| 1777484406 | 20° C | 87% | 1014.9 hPa | 0 mm | - | 77 W/m² | - |
| 1777484102 | 19.44° C | 89% | 1015 hPa | 0 mm | - | 965 W/m² | - |
| 1777483798 | 19.44° C | 91% | 1014.7 hPa | 0 mm | - | 415 W/m² | - |
| 1777483496 | 18.89° C | 93% | 1014.9 hPa | 0 mm | - | 673 W/m² | - |
| 1777483196 | 18.89° C | 93% | 1014.7 hPa | 0 mm | - | 404 W/m² | - |
| 1777482893 | 18.33° C | 94% | 1014.6 hPa | 0 mm | - | 460 W/m² | - |
| 1777482588 | 18.33° C | 95% | 1014.6 hPa | 1.78 mm | - | 369 W/m² | - |
| 1777482286 | 18.33° C | 95% | 1014.9 hPa | 1.78 mm | - | 223 W/m² | - |
| 1777481983 | 19.44° C | 93% | 1014.6 hPa | 0 mm | - | 90 W/m² | - |
| 1777481681 | 19.44° C | 93% | 1014.7 hPa | 1.27 mm | - | 193 W/m² | - |
| 1777481378 | 18.89° C | 95% | 1014.5 hPa | 1.27 mm | - | 532 W/m² | - |
| 1777481074 | 18.33° C | 97% | 1014.8 hPa | 0 mm | - | 688 W/m² | - |
| 1777480771 | 18.33° C | 96% | 1014.7 hPa | 0 mm | - | 305 W/m² | - |
| 1777480467 | 18.33° C | 99% | 1014.7 hPa | 0 mm | - | 365 W/m² | - |
| 1777480163 | 17.78° C | 98% | 1014.7 hPa | 0 mm | - | 559 W/m² | - |
| 1777479860 | 17.78° C | 98% | 1015.1 hPa | 0 mm | - | 309 W/m² | - |
| 1777479557 | 17.78° C | 98% | 1014.8 hPa | 0 mm | - | 302 W/m² | - |
| 1777479255 | 17.78° C | 99% | 1014.8 hPa | 0 mm | - | 279 W/m² | - |
| 1777478951 | 17.78° C | 99% | 1014.7 hPa | 0 mm | - | 363 W/m² | - |
| 1777478648 | 17.22° C | 99% | 1014.8 hPa | 0 mm | - | 237 W/m² | - |
| 1777478345 | 17.22° C | 99% | 1014.7 hPa | 1.78 mm | - | 251 W/m² | - |
| 1777478041 | 17.22° C | 99% | 1015 hPa | 1.27 mm | - | 146 W/m² | - |
| 1777477736 | 16.67° C | 99% | 1014.8 hPa | 1.27 mm | - | 112 W/m² | - |
* Rain latest hour (hover to see other rain measurements)
** Current wind speed in m/s (hover to see current wind gust speed)